Latest Weather Observations for Nullarbor

IDS60801

Issued at 8:35 am CDT Sunday 26 October 2014 (issued every 30 minutes, with the page automatically refreshed every 10 minutes)

About weather observations | Map of weather stations | Latest weather observations for SA | Other Formats
Station Details ID: 018106 Name: NULLARBOR Lat: -31.45 Lon: 130.90 Height: 64.0 m
Data from the previous 72 hours. | See also: Recent months at Nullarbor
Date/Time
CDT
Temp
°C
App
Temp
°C
Dew
Point
Rel
Hum
%
Delta-T
°C
Wind Press
QNH
hPa
Press
MSL
hPa
Rain
since 9 am
mm
Dir
 
Spd
km/h
Gust
km/h
Spd
kts
Gust
kts
26/08:30am 26.3 21.4 12.4 42 8.1 W 30 39 16 21 1009.2 1009.0 0.6
26/08:00am 26.4 23.3 12.1 41 8.3 N 20 24 11 13 1008.1 1007.9 0.6
26/07:30am 25.5 21.9 12.0 43 7.8 N 22 28 12 15 1008.0 1007.8 0.6
26/07:00am 25.3 22.0 11.5 42 7.8 N 20 28 11 15 1007.7 1007.5 0.6
26/06:30am 25.2 21.1 11.4 42 7.8 N 24 32 13 17 1007.8 1007.6 0.6
26/06:00am 25.4 21.3 11.6 42 7.9 N 24 32 13 17 1008.0 1007.8 0.6
26/05:30am 25.5 21.9 12.0 43 7.8 N 22 28 12 15 1008.1 1007.9 0.6
26/05:00am 26.6 22.5 11.5 39 8.6 N 24 32 13 17 1007.8 1007.6 0.6
26/04:30am 26.2 22.0 12.3 42 8.1 N 26 30 14 16 1007.3 1007.1 0.6
26/04:00am 25.0 21.8 13.2 48 6.9 NNE 22 28 12 15 1007.4 1007.2 0.6
26/03:30am 24.9 22.2 13.5 49 6.7 NNE 20 24 11 13 1007.6 1007.4 0.6
26/03:00am 26.9 22.7 12.5 40 8.4 NNE 26 32 14 17 1008.1 1007.9 0.6
26/02:30am 27.9 19.9 12.3 38 9.1 NNE 46 65 25 35 1008.8 1008.6 0.6
26/02:27am 27.9 19.1 12.3 38 9.1 NNE 50 69 27 37 1008.3 1008.1 0.6
26/02:15am 27.8 18.4 12.6 39 8.9 N 54 65 29 35 1009.1 1008.9 0.6
26/02:12am 27.8 17.3 13.3 40 8.6 NNW 61 74 33 40 1010.8 1010.7 0.6
26/02:08am 28.8 23.2 12.2 35 9.7 NW 33 56 18 30 1010.9 1010.8 0.6
26/02:00am 28.8 24.2 12.2 35 9.7 NW 28 43 15 23 1010.6 1010.5 0.6
26/01:30am 25.7 23.3 14.5 50 6.7 N 20 24 11 13 1009.7 1009.5 0.6
26/01:00am 24.9 23.6 14.7 53 6.1 N 15 19 8 10 1009.7 1009.5 0.6
26/12:30am 24.8 23.2 14.9 54 5.9 NE 17 20 9 11 1010.6 1010.5 0.6
26/12:07am 25.6 22.9 14.7 51 6.5 ENE 22 32 12 17 1011.0 1010.9 0.6
26/12:00am 24.9 22.0 15.2 54 5.9 ENE 24 33 13 18 1011.2 1011.1 0.6
 
Date/Time
CDT
Temp
°C
App
Temp
°C
Dew
Point
Rel
Hum
%
Delta-T
°C
Wind Press
QNH
hPa
Press
MSL
hPa
Rain
since 9 am
mm
Dir
 
Spd
km/h
Gust
km/h
Spd
kts
Gust
kts
25/11:47pm 24.3 21.7 15.8 59 5.2 NNE 24 32 13 17 1012.2 1012.1 0.6
25/11:33pm 24.3 20.0 15.5 58 5.3 WNW 32 50 17 27 1014.4 1014.3 0.4
25/11:30pm 24.2 19.5 15.9 59 5.0 WNW 35 50 19 27 1014.5 1014.4 0.4
25/11:25pm 24.0 18.8 15.5 59 5.1 WNW 37 46 20 25 1014.5 1014.4 0.2
25/11:00pm 25.1 21.7 13.6 49 6.8 NW 24 33 13 18 1014.2 1014.1 0.0
25/10:31pm 22.3 15.5 14.2 60 4.8 NW 43 63 23 34 1014.5 1014.4 0.0
25/10:30pm 21.8 14.4 14.2 62 4.4 NW 46 63 25 34 1014.9 1014.8 0.0
25/10:29pm 21.4 18.1 14.1 63 4.3 N 24 59 13 32 1013.2 1013.1 0.0
25/10:00pm 20.5 17.4 14.4 68 3.6 ESE 24 30 13 16 1010.6 1010.5 0.0
25/09:30pm 19.9 16.9 14.9 73 2.9 ESE 24 32 13 17 1010.7 1010.6 0.0
25/09:00pm 19.9 16.6 14.9 73 2.9 ESE 26 32 14 17 1010.9 1010.8 0.0
25/08:30pm 19.9 16.1 14.7 72 3.0 ESE 28 35 15 19 1010.8 1010.7 0.0
25/08:00pm 20.4 15.7 14.3 68 3.6 ESE 32 41 17 22 1010.8 1010.7 0.0
25/07:30pm 21.5 17.6 13.4 60 4.7 SE 26 35 14 19 1010.9 1010.8 0.0
25/07:00pm 22.6 18.1 12.5 53 5.8 SE 28 37 15 20 1011.4 1011.3 0.0
25/06:30pm 23.7 18.2 12.0 48 6.7 ESE 32 39 17 21 1011.5 1011.4 0.0
25/06:00pm 23.0 18.7 14.3 58 5.1 ESE 30 37 16 20 1011.9 1011.8 0.0
25/05:30pm 23.6 19.8 14.6 57 5.3 SE 28 35 15 19 1012.3 1012.2 0.0
25/05:00pm 24.8 20.8 14.0 51 6.4 SE 28 35 15 19 1012.5 1012.4 0.0
25/04:30pm 26.1 21.5 13.6 46 7.4 ESE 30 35 16 19 1012.7 1012.6 0.0
25/04:00pm 26.4 21.9 13.9 46 7.4 SE 30 37 16 20 1013.3 1013.2 0.0
25/03:30pm 27.6 23.4 13.5 41 8.4 SE 28 33 15 18 1013.7 1013.6 0.0
25/03:00pm 29.9 26.2 12.8 35 10.1 SE 24 33 13 18 1014.2 1014.1 0.0
25/02:30pm 31.0 28.1 10.9 29 11.6 E 17 30 9 16 1014.7 1014.6 0.0
25/02:00pm 29.9 27.0 10.9 31 10.9 E 17 26 9 14 1015.0 1014.9 0.0
25/01:30pm 29.5 26.7 10.1 30 11.0 E 15 24 8 13 1015.4 1015.3 0.0
25/01:00pm 29.3 26.0 10.9 32 10.5 SE 19 32 10 17 1015.8 1015.7 0.0
25/12:30pm 28.0 24.5 10.2 33 10.0 ENE 19 26 10 14 1016.6 1016.5 0.0
25/12:00pm 26.3 23.4 10.9 38 8.7 E 17 24 9 13 1017.0 1016.9 0.0
25/11:30am 24.8 22.2 12.1 45 7.3 ENE 17 24 9 13 1017.6 1017.5 0.0
25/11:00am 22.7 20.1 12.0 50 6.1 E 17 30 9 16 1017.9 1017.8 0.0
25/10:30am 20.9 19.3 12.8 60 4.6 NE 13 22 7 12 1018.9 1018.8 0.0
25/10:00am 19.2 17.5 13.6 70 3.2 N 15 19 8 10 1019.6 1019.5 0.0
25/09:30am 18.2 17.5 13.3 73 2.8 NNE 9 13 5 7 1019.9 1019.8 0.0
25/09:14am 17.7 15.9 13.4 76 2.4 ENE 15 20 8 11 1019.4 1019.3 0.0
25/09:00am 17.7 16.0 13.6 77 2.3 E 15 20 8 11 1019.0 1018.9 0.0
25/08:30am 17.4 15.2 14.3 82 1.8 E 19 24 10 13 1018.6 1018.5 0.0
25/08:00am 16.7 14.2 14.2 85 1.4 E 20 24 11 13 1018.5 1018.4 0.0
25/07:30am 16.2 13.6 13.9 86 1.3 E 20 26 11 14 1018.3 1018.2 0.0
25/07:00am 16.2 13.9 14.0 87 1.2 ESE 19 24 10 13 1018.2 1018.1 0.0
25/06:30am 16.2 15.0 14.0 87 1.2 SE 13 22 7 12 1018.2 1018.1 0.0
25/06:00am 16.2 14.3 14.2 88 1.1 ESE 17 22 9 12 1017.9 1017.8 0.0
25/05:30am 16.2 15.1 14.2 88 1.1 ESE 13 20 7 11 1017.9 1017.8 0.0
25/05:00am 16.3 15.1 14.1 87 1.3 ESE 13 17 7 9 1017.8 1017.7 0.0
25/04:30am 16.4 15.3 14.2 87 1.3 ESE 13 17 7 9 1018.1 1018.0 0.0
25/04:00am 16.5 15.0 14.2 86 1.3 ESE 15 19 8 10 1018.1 1018.0 0.0
25/03:30am 16.7 14.8 14.3 86 1.4 SSE 17 22 9 12 1018.0 1017.9 0.0
25/03:00am 16.5 15.0 14.3 87 1.3 SSE 15 22 8 12 1018.4 1018.3 0.0
25/02:30am 16.6 14.3 14.6 88 1.1 SSE 20 26 11 14 1018.6 1018.5 0.0
25/02:00am 16.6 14.5 14.6 88 1.2 S 19 24 10 13 1018.6 1018.5 0.0
25/01:30am 16.7 14.5 14.9 89 1.0 SSE 20 28 11 15 1018.5 1018.4 0.0
25/01:00am 16.6 14.4 15.0 90 0.9 SE 20 26 11 14 1018.5 1018.4 0.0
25/12:30am 16.6 14.5 15.1 91 0.9 SSE 20 28 11 15 1018.6 1018.5 0.0
25/12:00am 16.5 13.9 14.9 90 0.9 SSE 22 28 12 15 1018.4 1018.3 0.0
 
Date/Time
CDT
Temp
°C
App
Temp
°C
Dew
Point
Rel
Hum
%
Delta-T
°C
Wind Press
QNH
hPa
Press
MSL
hPa
Rain
since 9 am
mm
Dir
 
Spd
km/h
Gust
km/h
Spd
kts
Gust
kts
24/11:30pm 16.9 14.8 15.1 89 1.0 SSE 20 28 11 15 1018.6 1018.5 0.0
24/11:00pm 16.6 15.2 15.6 94 0.6 SSE 17 22 9 12 1018.8 1018.7 0.0
24/10:40pm 15.9 14.7 15.1 95 0.5 S 15 19 8 10 1018.7 1018.6 0.0
24/10:30pm 15.3 14.2 14.2 93 0.6 SSE 13 15 7 8 1018.7 1018.6 0.0
24/10:00pm 15.5 14.7 14.0 91 0.8 S 11 13 6 7 1018.8 1018.7 0.0
24/09:30pm 16.2 15.5 14.2 88 1.1 S 11 15 6 8 1018.7 1018.6 0.0
24/09:00pm 16.8 15.4 14.4 86 1.4 S 15 17 8 9 1018.4 1018.3 0.0
24/08:30pm 17.4 15.5 14.3 82 1.8 S 17 20 9 11 1018.1 1018.0 0.0
24/08:00pm 18.1 15.6 14.0 77 2.4 S 20 28 11 15 1017.7 1017.6 0.0
24/07:30pm 19.1 15.3 13.5 70 3.2 S 26 32 14 17 1017.1 1017.0 0.0
24/07:00pm 20.4 16.4 13.1 63 4.2 S 26 32 14 17 1016.9 1016.8 0.0
24/06:30pm 21.1 16.6 12.5 58 4.9 S 28 33 15 18 1016.4 1016.3 0.0
24/06:00pm 22.2 17.7 12.5 54 5.5 S 28 35 15 19 1016.4 1016.3 0.0
24/05:30pm 22.9 18.0 11.3 48 6.5 S 28 33 15 18 1016.3 1016.2 0.0
24/05:00pm 23.3 18.5 11.7 48 6.5 S 28 33 15 18 1016.4 1016.3 0.0
24/04:30pm 23.7 18.8 11.4 46 6.9 S 28 37 15 20 1016.3 1016.2 0.0
24/04:00pm 24.4 19.5 9.9 40 8.0 S 26 33 14 18 1016.6 1016.5 0.0
24/03:30pm 26.0 21.3 9.4 35 9.1 S 24 33 13 18 1016.6 1016.5 0.0
24/03:00pm 25.9 20.0 7.5 31 9.8 S 28 37 15 20 1016.6 1016.5 0.0
24/02:30pm 26.1 19.6 6.7 29 10.2 S 30 43 16 23 1016.5 1016.4 0.0
24/02:00pm 26.6 19.8 7.1 29 10.3 S 32 44 17 24 1016.3 1016.2 0.0
24/01:30pm 26.4 18.9 6.4 28 10.4 S 35 44 19 24 1016.3 1016.2 0.0
24/01:00pm 27.0 20.1 6.4 27 10.8 S 32 41 17 22 1016.5 1016.4 0.0
24/12:30pm 26.8 20.6 7.8 30 10.2 SSE 30 39 16 21 1016.5 1016.4 0.0
24/12:00pm 27.1 20.9 8.0 30 10.3 S 30 37 16 20 1016.7 1016.6 0.0
24/11:30am 25.9 19.6 7.5 31 9.8 SSE 30 37 16 20 1016.6 1016.5 0.0
24/11:00am 25.8 20.5 8.3 33 9.4 SSE 26 35 14 19 1016.5 1016.4 0.0
24/10:30am 23.9 19.2 10.6 43 7.4 S 26 33 14 18 1016.1 1016.0 0.0
24/10:00am 23.7 18.8 10.0 42 7.5 SSE 26 33 14 18 1016.0 1015.9 0.0
24/09:30am 22.4 17.9 12.6 54 5.6 S 28 35 15 19 1015.8 1015.7 0.0
24/09:00am 21.0 17.7 13.9 64 4.1 S 24 32 13 17 1015.5 1015.4 0.0
24/08:30am 19.5 18.0 15.2 76 2.5 S 17 20 9 11 1015.3 1015.2 0.0
24/08:00am 16.7 16.4 14.3 86 1.4 SSW 9 11 5 6 1015.0 1014.9 0.0
24/07:30am 14.4 12.8 12.8 90 0.9 S 13 15 7 8 1014.5 1014.4 0.0
24/07:00am 14.4 12.4 12.6 89 1.0 SSE 15 17 8 9 1014.1 1014.0 0.0
24/06:30am 15.0 13.7 12.5 85 1.4 S 11 13 6 7 1013.9 1013.8 0.0
24/06:00am 16.1 14.9 12.8 81 1.8 S 11 15 6 8 1013.4 1013.3 0.0
24/05:30am 17.6 16.2 13.5 77 2.3 SSE 13 19 7 10 1013.1 1013.0 0.0
24/05:00am 18.8 16.5 13.0 69 3.3 S 17 20 9 11 1012.9 1012.8 0.0
24/04:30am 20.2 16.6 11.7 58 4.7 SW 22 32 12 17 1012.6 1012.5 0.0
24/04:00am 22.1 17.2 6.7 37 7.9 WSW 22 28 12 15 1012.2 1012.1 0.0
24/03:30am 18.2 14.6 6.7 47 5.7 N 15 17 8 9 1011.2 1011.1 0.0
24/03:00am 19.1 15.9 6.9 45 6.2 N 13 17 7 9 1011.2 1011.1 0.0
24/02:30am 20.0 16.7 6.4 41 6.8 N 13 13 7 7 1011.4 1011.3 0.0
24/02:00am 22.0 18.5 7.0 38 7.7 N 15 19 8 10 1011.5 1011.4 0.0
24/01:30am 21.4 18.1 8.0 42 7.0 N 15 19 8 10 1011.8 1011.7 0.0
24/01:00am 21.1 17.7 9.0 46 6.4 N 17 19 9 10 1012.0 1011.9 0.0
24/12:30am 20.5 17.4 8.8 47 6.2 N 15 15 8 8 1012.2 1012.1 0.0
24/12:00am 22.3 19.0 9.5 44 6.9 NNE 17 20 9 11 1012.3 1012.2 0.0
 
Date/Time
CDT
Temp
°C
App
Temp
°C
Dew
Point
Rel
Hum
%
Delta-T
°C
Wind Press
QNH
hPa
Press
MSL
hPa
Rain
since 9 am
mm
Dir
 
Spd
km/h
Gust
km/h
Spd
kts
Gust
kts
23/11:30pm 23.4 20.2 9.8 42 7.4 NE 17 20 9 11 1012.3 1012.2 0.0
23/11:00pm 24.0 20.6 10.7 43 7.4 NE 19 20 10 11 1012.4 1012.3 0.0
23/10:30pm 23.2 20.9 11.9 49 6.4 ENE 15 17 8 9 1012.5 1012.4 0.0
23/10:00pm 22.4 20.0 12.6 54 5.6 NE 17 19 9 10 1012.8 1012.7 0.0
23/09:30pm 21.2 19.4 13.4 61 4.5 ENE 15 19 8 10 1012.7 1012.6 0.0
23/09:00pm 20.8 19.1 13.5 63 4.2 E 15 19 8 10 1012.7 1012.6 0.0
23/08:30pm 20.8 18.7 13.5 63 4.2 E 17 20 9 11 1013.4 1013.3 0.0
23/08:00pm 22.4 20.5 12.9 55 5.5 E 15 19 8 10 1012.8 1012.7 0.0
23/07:30pm 23.7 21.6 12.4 49 6.5 E 15 24 8 13 1012.9 1012.8 0.0
23/07:00pm 22.8 20.9 11.8 50 6.2 NE 13 19 7 10 1014.4 1014.3 0.0
23/06:30pm 22.8 21.4 12.1 51 6.1 SE 11 17 6 9 1013.7 1013.6 0.0
23/06:00pm 22.7 21.0 12.3 52 5.9 ESE 13 17 7 9 1013.5 1013.4 0.0
23/05:30pm 23.5 21.3 12.2 49 6.4 ENE 15 20 8 11 1013.6 1013.5 0.0
23/05:00pm 23.4 20.6 13.3 53 5.9 ESE 20 26 11 14 1012.9 1012.8 0.0
23/04:30pm 22.4 18.8 13.2 56 5.3 ESE 24 30 13 16 1013.5 1013.4 0.0
23/04:00pm 21.9 18.3 13.0 57 5.1 ESE 24 32 13 17 1013.8 1013.7 0.0
23/03:30pm 21.7 18.0 12.8 57 5.1 SE 24 30 13 16 1013.9 1013.8 0.0
23/03:00pm 21.7 16.4 12.5 56 5.2 S 32 39 17 21 1015.0 1014.9 0.0
23/02:53pm 21.8 16.3 12.4 55 5.3 S 33 39 18 21 1015.2 1015.1 0.0
23/02:30pm 26.8 22.7 11.3 38 8.8 SSE 24 30 13 16 1015.2 1015.1 0.0
23/02:00pm 29.6 26.6 7.5 25 12.0 NNE 13 20 7 11 1014.9 1014.8 0.0
23/01:30pm 28.2 24.9 8.0 28 11.0 N 15 24 8 13 1015.4 1015.3 0.0
23/01:00pm 27.6 25.6 8.5 30 10.4 NNE 9 20 5 11 1016.3 1016.2 0.0
23/12:30pm 27.4 24.9 9.7 33 9.8 NNW 13 24 7 13 1017.0 1016.9 0.0
23/12:00pm 24.8 20.8 9.1 37 8.5 NNE 20 28 11 15 1016.4 1016.3 0.0
23/11:30am 23.1 20.6 10.9 46 6.8 N 15 22 8 12 1017.1 1017.0 0.0
23/11:00am 21.0 19.2 10.8 52 5.6 NNE 11 17 6 9 1017.7 1017.6 0.0
23/10:30am 20.0 17.9 11.2 57 4.8 N 13 22 7 12 1017.8 1017.7 0.0
23/10:00am 18.0 15.1 10.9 63 3.8 NNE 17 20 9 11 1017.5 1017.4 0.0
23/09:30am 16.3 13.5 11.2 72 2.7 ENE 17 22 9 12 1017.2 1017.1 0.0
23/09:00am 14.9 11.8 11.5 80 1.8 ENE 19 22 10 12 1017.5 1017.4 0.0
23/08:54am 14.8 12.1 11.6 81 1.7 ENE 17 20 9 11 1017.5 1017.4 0.0

Other Formats:

Comma delimited format used in spreadsheet applications
http://www.bom.gov.au/fwo/IDS60801/IDS60801.94651.axf

JavaScript Object Notation format (JSON) in row-major order
http://www.bom.gov.au/fwo/IDS60801/IDS60801.94651.json